createdAt,value
2023-03-11T00:04:04.889Z,97385.67
2023-03-11T00:09:08.012Z,97383.36
2023-03-11T00:14:11.033Z,97376.65
2023-03-11T00:19:14.373Z,97368.83
2023-03-11T00:24:17.149Z,97363.41
2023-03-11T00:29:20.005Z,97352.16
2023-03-11T00:34:23.032Z,97376.52
2023-03-11T00:39:26.534Z,97362.16
2023-03-11T00:44:29.581Z,97342.96
2023-03-11T00:49:34.943Z,97342.64
2023-03-11T00:54:37.725Z,97343.18
2023-03-11T00:59:40.472Z,97338.28
2023-03-11T01:04:43.337Z,97328.80
2023-03-11T01:09:46.148Z,97320.13
2023-03-11T01:14:48.938Z,97301.64
2023-03-11T01:19:52.033Z,97295.54
2023-03-11T01:24:55.013Z,97304.18
2023-03-11T01:29:59.203Z,97301.58
2023-03-11T01:35:02.335Z,97292.74
2023-03-11T01:40:09.269Z,97287.71
2023-03-11T01:45:40.806Z,97285.55
2023-03-11T01:50:46.917Z,97283.66
2023-03-11T01:55:50.506Z,97271.46
2023-03-11T02:00:55.262Z,97271.23
2023-03-11T02:06:02.149Z,97262.02
2023-03-11T02:11:08.156Z,97265.52
2023-03-11T02:16:11.377Z,97267.20
2023-03-11T02:21:22.290Z,97277.98
2023-03-11T02:26:48.442Z,97276.01
2023-03-11T02:31:51.567Z,97270.53
2023-03-11T02:36:54.522Z,97267.63
2023-03-11T02:41:58.733Z,97274.23
2023-03-11T02:47:02.385Z,97278.77
2023-03-11T02:52:05.872Z,97274.17
2023-03-11T02:57:08.654Z,97270.70
2023-03-11T03:02:11.480Z,97271.05
2023-03-11T03:07:14.434Z,97267.02
2023-03-11T03:12:17.140Z,97275.80
2023-03-11T03:17:21.095Z,97274.50
2023-03-11T03:22:27.537Z,97285.08
2023-03-11T03:27:30.735Z,97295.08
2023-03-11T03:32:33.644Z,97300.96
2023-03-11T03:37:37.812Z,97309.98
2023-03-11T03:42:41.764Z,97311.24
2023-03-11T03:47:44.617Z,97309.23
2023-03-11T03:52:47.499Z,97308.85
2023-03-11T03:57:50.326Z,97312.66
2023-03-11T04:02:53.104Z,97307.30
2023-03-11T04:07:55.846Z,97312.67
2023-03-11T04:12:58.764Z,97316.96
2023-03-11T04:18:01.439Z,97322.04
2023-03-11T04:23:04.547Z,97326.67
2023-03-11T04:28:07.342Z,97332.23
2023-03-11T04:33:10.097Z,97333.48
2023-03-11T04:38:13.008Z,97335.59
2023-03-11T04:43:16.037Z,97336.54
2023-03-11T04:48:19.175Z,97334.67
2023-03-11T04:53:22.409Z,97335.95
2023-03-11T04:58:25.500Z,97347.70
2023-03-11T05:03:28.318Z,97347.88
2023-03-11T05:08:31.108Z,97346.43
2023-03-11T05:13:33.912Z,97355.17
2023-03-11T05:18:36.716Z,97355.92
2023-03-11T05:23:39.491Z,97349.35
2023-03-11T05:28:42.481Z,97359.75
2023-03-11T05:33:45.281Z,97374.08
2023-03-11T05:38:50.672Z,97378.23
2023-03-11T05:43:53.411Z,97383.69
2023-03-11T05:48:56.186Z,97389.58
2023-03-11T05:53:59.050Z,97386.19
2023-03-11T05:59:01.768Z,97390.43
2023-03-11T06:04:04.740Z,97404.44
2023-03-11T06:09:12.227Z,97418.23
2023-03-11T06:14:15.151Z,97426.95
2023-03-11T06:19:19.022Z,97441.90
2023-03-11T06:24:22.223Z,97454.73
2023-03-11T06:29:26.802Z,97472.28
2023-03-11T06:34:30.176Z,97480.91
2023-03-11T06:39:33.334Z,97492.38
2023-03-11T06:44:36.617Z,97503.86
2023-03-11T06:49:41.891Z,97506.63
2023-03-11T06:54:45.054Z,97512.86
2023-03-11T06:59:47.826Z,97527.05
2023-03-11T07:04:51.342Z,97539.21
2023-03-11T07:10:00.033Z,97557.35
2023-03-11T07:15:03.989Z,97569.39
2023-03-11T07:20:07.804Z,97582.99
2023-03-11T07:25:10.702Z,97590.41
2023-03-11T07:30:13.772Z,97598.41
2023-03-11T07:35:16.925Z,97608.95
2023-03-11T07:40:20.024Z,97616.64
2023-03-11T07:45:23.606Z,97627.86
2023-03-11T07:50:26.812Z,97631.35
2023-03-11T07:55:29.920Z,97629.05
2023-03-11T08:00:32.735Z,97633.64
2023-03-11T08:05:35.791Z,97653.16
2023-03-11T08:10:40.018Z,97663.98
2023-03-11T08:15:44.258Z,97667.32
2023-03-11T08:20:48.451Z,97675.14
2023-03-11T08:25:51.407Z,97683.20
2023-03-11T08:30:56.248Z,97688.48
2023-03-11T08:36:00.076Z,97696.38
2023-03-11T08:41:03.329Z,97711.84
2023-03-11T08:46:07.457Z,97733.14
2023-03-11T08:51:12.524Z,97741.69
2023-03-11T08:56:15.390Z,97741.32
2023-03-11T09:01:20.351Z,97752.27
2023-03-11T09:06:25.650Z,97767.36
2023-03-11T09:11:28.524Z,97781.30
2023-03-11T09:16:31.431Z,97795.23
2023-03-11T09:21:34.959Z,97805.58
2023-03-11T09:26:37.819Z,97817.08
2023-03-11T09:31:40.688Z,97826.81
2023-03-11T09:36:46.752Z,97840.30
2023-03-11T09:41:58.903Z,97853.61
2023-03-11T09:47:23.888Z,97855.51
2023-03-11T09:52:51.908Z,97866.56
2023-03-11T09:57:57.869Z,97880.45
2023-03-11T10:03:03.334Z,97884.05
2023-03-11T10:08:34.448Z,97905.85
2023-03-11T10:13:55.531Z,97916.07
2023-03-11T10:19:22.882Z,97924.06
2023-03-11T10:24:45.824Z,97941.72
2023-03-11T10:30:10.040Z,97951.37
2023-03-11T10:35:28.584Z,97961.08
2023-03-11T10:40:41.769Z,97976.66
2023-03-11T10:45:48.710Z,97984.36
2023-03-11T10:50:57.990Z,97992.93
2023-03-11T10:56:02.190Z,98003.74
2023-03-11T11:01:16.934Z,98013.89
2023-03-11T11:06:35.299Z,98024.66
2023-03-11T11:11:39.737Z,98035.18
2023-03-11T11:16:42.681Z,98039.63
2023-03-11T11:21:50.836Z,98041.59
2023-03-11T11:27:07.592Z,98057.27
2023-03-11T11:32:20.752Z,98058.11
2023-03-11T11:37:27.003Z,98073.84
2023-03-11T11:42:31.375Z,98082.10
2023-03-11T11:47:36.346Z,98094.55
2023-03-11T11:52:52.772Z,98105.61
2023-03-11T11:57:58.698Z,98108.23
2023-03-11T12:03:16.505Z,98117.95
2023-03-11T12:08:38.053Z,98126.33
2023-03-11T12:13:50.969Z,98132.80
2023-03-11T12:19:10.501Z,98149.02
2023-03-11T12:24:28.721Z,98164.10
2023-03-11T12:29:39.315Z,98174.33
2023-03-11T12:34:43.200Z,98182.02
2023-03-11T12:39:46.072Z,98194.25
2023-03-11T12:44:50.353Z,98202.02
2023-03-11T12:50:51.557Z,98208.22
2023-03-11T12:56:10.189Z,98225.30
2023-03-11T13:01:32.627Z,98239.60
2023-03-11T13:06:53.304Z,98245.39
2023-03-11T13:11:56.505Z,98249.98
2023-03-11T13:17:26.657Z,98267.93
2023-03-11T13:22:58.282Z,98276.45
2023-03-11T13:28:38.369Z,98288.70
2023-03-11T13:34:01.154Z,98303.83
2023-03-11T13:39:28.273Z,98324.37
2023-03-11T13:44:37.682Z,98327.45
2023-03-11T13:49:47.840Z,98333.57
2023-03-11T13:55:01.471Z,98345.52
2023-03-11T14:00:29.325Z,98347.38
2023-03-11T14:05:35.425Z,98358.89
2023-03-11T14:10:39.036Z,98363.72
2023-03-11T14:16:00.841Z,98374.90
2023-03-11T14:21:06.736Z,98386.16
2023-03-11T14:26:15.041Z,98397.11
2023-03-11T14:31:33.965Z,98405.98
2023-03-11T14:36:48.630Z,98423.20
2023-03-11T14:42:00.888Z,98431.11
2023-03-11T14:47:33.384Z,98442.48
2023-03-11T14:52:50.925Z,98447.93
2023-03-11T14:57:57.312Z,98457.20
2023-03-11T15:03:15.072Z,98467.70
2023-03-11T15:08:22.326Z,98483.22
2023-03-11T15:13:25.439Z,98493.67
2023-03-11T15:18:37.870Z,98499.94
2023-03-11T15:23:49.952Z,98504.60
2023-03-11T15:29:01.887Z,98512.52
2023-03-11T15:34:16.963Z,98519.64
2023-03-11T15:39:28.120Z,98529.94
2023-03-11T15:44:41.004Z,98536.39
2023-03-11T15:49:46.612Z,98550.42
2023-03-11T15:54:55.703Z,98558.65
2023-03-11T16:00:01.216Z,98565.55
2023-03-11T16:05:14.326Z,98578.65
2023-03-11T16:10:21.525Z,98589.83
2023-03-11T16:15:26.289Z,98602.73
2023-03-11T16:20:42.373Z,98619.23
2023-03-11T16:25:46.677Z,98633.33
2023-03-11T16:30:50.713Z,98641.25
2023-03-11T16:35:54.463Z,98650.40
2023-03-11T16:41:02.898Z,98667.40
2023-03-11T16:46:07.244Z,98677.74
2023-03-11T16:51:10.880Z,98686.02
2023-03-11T16:56:13.949Z,98697.52
2023-03-11T17:01:18.137Z,98703.37
2023-03-11T17:06:21.784Z,98713.63
2023-03-11T17:11:28.687Z,98725.44
2023-03-11T17:16:35.417Z,98733.96
2023-03-11T17:21:38.361Z,98736.35
2023-03-11T17:26:42.507Z,98746.80
2023-03-11T17:31:45.808Z,98750.05
2023-03-11T17:36:50.240Z,98759.63
2023-03-11T17:41:53.194Z,98769.23
2023-03-11T17:46:55.985Z,98771.27
2023-03-11T17:51:58.828Z,98776.77
2023-03-11T17:57:01.639Z,98784.64
2023-03-11T18:02:04.586Z,98789.64
2023-03-11T18:07:08.473Z,98791.73
2023-03-11T18:12:11.348Z,98800.33
2023-03-11T18:17:14.125Z,98808.02
2023-03-11T18:22:16.980Z,98812.83
2023-03-11T18:27:19.843Z,98823.94
2023-03-11T18:32:24.922Z,98831.45
2023-03-11T18:37:27.921Z,98838.63
2023-03-11T18:42:32.671Z,98848.54
2023-03-11T18:47:35.618Z,98848.54
2023-03-11T18:52:38.638Z,98848.19
2023-03-11T18:57:43.242Z,98851.95
2023-03-11T19:02:50.654Z,98859.13
2023-03-11T19:07:54.958Z,98857.25
2023-03-11T19:12:57.754Z,98863.58
2023-03-11T19:18:07.000Z,98871.78
2023-03-11T19:23:11.789Z,98879.48
2023-03-11T19:28:15.097Z,98887.70
2023-03-11T19:33:20.014Z,98888.19
2023-03-11T19:38:23.837Z,98901.30
2023-03-11T19:43:28.270Z,98905.39
2023-03-11T19:48:31.755Z,98918.88
2023-03-11T19:53:36.862Z,98916.80
2023-03-11T19:58:42.465Z,98922.24
2023-03-11T20:03:45.978Z,98928.04
2023-03-11T20:08:50.272Z,98932.47
2023-03-11T20:13:53.288Z,98937.39
2023-03-11T20:18:56.211Z,98941.32
2023-03-11T20:23:59.349Z,98944.06
2023-03-11T20:29:04.656Z,98943.73
2023-03-11T20:34:07.558Z,98946.13
2023-03-11T20:39:11.992Z,98950.73
2023-03-11T20:44:19.392Z,98945.23
2023-03-11T20:49:25.857Z,98947.23
2023-03-11T20:54:29.587Z,98948.74
2023-03-11T20:59:32.563Z,98953.52
2023-03-11T21:04:36.199Z,98953.15
2023-03-11T21:09:39.263Z,98958.23
2023-03-11T21:14:44.440Z,98961.27
2023-03-11T21:19:48.438Z,98959.38
2023-03-11T21:24:55.497Z,98957.65
2023-03-11T21:29:59.412Z,98952.33
2023-03-11T21:35:02.494Z,98949.23
2023-03-11T21:40:07.572Z,98947.88
2023-03-11T21:45:11.306Z,98949.73
2023-03-11T21:50:14.308Z,98949.02
2023-03-11T21:55:19.781Z,98945.26
2023-03-11T22:00:22.963Z,98946.12
2023-03-11T22:05:26.565Z,98954.30
2023-03-11T22:10:31.372Z,98956.85
2023-03-11T22:15:34.752Z,98955.98
2023-03-11T22:20:41.100Z,98948.96
2023-03-11T22:25:47.005Z,98938.05
2023-03-11T22:30:50.492Z,98942.46
2023-03-11T22:35:55.450Z,98935.27
2023-03-11T22:41:00.499Z,98936.27
2023-03-11T22:46:05.429Z,98936.93
2023-03-11T22:51:09.094Z,98932.80
2023-03-11T22:56:15.220Z,98930.02
2023-03-11T23:01:18.499Z,98933.59
2023-03-11T23:06:22.436Z,98923.90
2023-03-11T23:11:25.807Z,98922.20
2023-03-11T23:16:32.255Z,98912.71
2023-03-11T23:21:35.638Z,98911.92
2023-03-11T23:26:38.600Z,98905.35
2023-03-11T23:31:41.441Z,98906.81
2023-03-11T23:36:44.348Z,98904.17
2023-03-11T23:41:47.134Z,98898.58
2023-03-11T23:46:50.108Z,98888.40
2023-03-11T23:51:53.833Z,98887.94
2023-03-11T23:56:56.712Z,98886.44
